Time;durP1;ratioP1;P1;durP2;ratioP2;P2;SDS_P1;SDS_P2;PMS_P1;PMS_P2;Temp;Humidity;BMP_temperature;BMP_pressure;BME280_temperature;BME280_humidity;BME280_pressure;Samples;Min_cycle;Max_cycle;Signal;HPM_P1;HPM_P2
2022/07/30 00:00:55;;;;;;;6.68;2.10;;;18.50;22.80;;;;;;5067859;28;20029;-64
2022/07/30 00:03:21;;;;;;;2.35;1.73;;;18.40;22.90;;;;;;5057925;28;20040;-64
2022/07/30 00:05:46;;;;;;;8.68;2.17;;;18.40;22.50;;;;;;5049071;28;20613;-65
2022/07/30 00:08:12;;;;;;;3.70;1.80;;;18.30;22.70;;;;;;5065853;28;20017;-65
2022/07/30 00:10:38;;;;;;;3.10;1.77;;;18.30;22.90;;;;;;5048906;28;20447;-64
2022/07/30 00:13:04;;;;;;;2.97;1.73;;;18.30;23.30;;;;;;5064282;28;20036;-63
2022/07/30 00:15:30;;;;;;;3.42;1.70;;;18.30;23.60;;;;;;5045615;28;20037;-65
2022/07/30 00:17:55;;;;;;;3.20;1.88;;;18.30;23.70;;;;;;5065756;28;20029;-65
2022/07/30 00:20:21;;;;;;;9.10;1.98;;;18.30;23.30;;;;;;5068297;28;20078;-65
2022/07/30 00:22:46;;;;;;;2.42;1.48;;;18.20;23.80;;;;;;5052186;28;20037;-64
2022/07/30 00:25:12;;;;;;;5.70;2.13;;;18.20;23.30;;;;;;5068323;28;20398;-65
2022/07/30 00:27:38;;;;;;;3.42;2.00;;;18.30;23.90;;;;;;5050974;28;20335;-64
2022/07/30 00:30:05;;;;;;;2.38;1.80;;;18.20;23.60;;;;;;5068351;28;20024;-65
2022/07/30 00:32:30;;;;;;;3.70;1.60;;;18.20;24.20;;;;;;5049683;28;20480;-65
2022/07/30 00:34:56;;;;;;;4.85;1.98;;;18.20;23.70;;;;;;5068148;28;20047;-65
2022/07/30 00:37:21;;;;;;;8.10;2.20;;;18.20;24.00;;;;;;5048318;28;20033;-64
2022/07/30 00:39:47;;;;;;;4.00;2.33;;;18.10;24.40;;;;;;5068184;28;20114;-64
2022/07/30 00:42:13;;;;;;;5.00;1.90;;;18.10;24.40;;;;;;5046923;28;20033;-64
2022/07/30 00:44:40;;;;;;;5.45;1.80;;;18.10;24.40;;;;;;5068108;28;20025;-64
2022/07/30 00:47:06;;;;;;;4.82;2.47;;;18.10;25.00;;;;;;5048540;28;20491;-64
2022/07/30 00:49:31;;;;;;;4.30;2.03;;;18.10;24.90;;;;;;5055585;28;20579;-64
2022/07/30 00:51:57;;;;;;;7.22;2.22;;;18.20;24.70;;;;;;5048354;28;20116;-64
2022/07/30 00:54:23;;;;;;;2.88;1.95;;;18.20;24.90;;;;;;5047654;28;20021;-64
2022/07/30 00:56:48;;;;;;;9.20;2.33;;;18.10;24.90;;;;;;5067205;28;20382;-64
2022/07/30 00:59:14;;;;;;;8.32;2.35;;;18.10;25.20;;;;;;5046642;28;20024;-65
2022/07/30 01:01:40;;;;;;;4.53;1.90;;;18.10;25.30;;;;;;5067231;28;20060;-64
2022/07/30 01:04:10;;;;;;;9.43;2.25;;;18.10;25.20;;;;;;5046844;28;20084;-64
2022/07/30 01:06:37;;;;;;;5.85;2.30;;;18.10;25.50;;;;;;5028215;28;20044;-64
2022/07/30 01:09:02;;;;;;;6.55;2.35;;;18.10;25.30;;;;;;5050544;28;20024;-64
2022/07/30 01:11:34;;;;;;;2.88;1.77;;;18.10;25.70;;;;;;5067333;28;20046;-64
2022/07/30 01:14:00;;;;;;;3.33;1.75;;;18.00;25.80;;;;;;5042411;28;20484;-64
2022/07/30 01:16:26;;;;;;;6.90;2.55;;;18.00;26.00;;;;;;5046959;28;20037;-64
2022/07/30 01:21:42;;;;;;;4.53;1.77;;;18.00;25.90;;;;;;5027902;28;20497;-65
2022/07/30 01:24:25;;;;;;;2.10;1.90;;;18.00;26.40;;;;;;5049378;28;20037;-65
2022/07/30 01:26:52;;;;;;;3.88;1.80;;;18.00;26.50;;;;;;5028249;28;20014;-64
2022/07/30 01:29:18;;;;;;;2.67;1.80;;;18.00;26.40;;;;;;5048758;28;20033;-66
2022/07/30 01:31:44;;;;;;;5.00;1.88;;;18.00;26.40;;;;;;5067023;28;20074;-65
2022/07/30 01:34:13;;;;;;;2.58;1.50;;;17.90;26.60;;;;;;5046367;28;20502;-64
2022/07/30 01:36:41;;;;;;;8.65;2.40;;;17.90;26.90;;;;;;5070637;28;20043;-64
2022/07/30 01:39:07;;;;;;;4.80;1.88;;;17.90;27.00;;;;;;5049654;28;20029;-64
2022/07/30 01:41:33;;;;;;;3.20;1.80;;;17.90;27.00;;;;;;5070439;28;20485;-65
2022/07/30 01:44:00;;;;;;;4.43;1.67;;;17.90;26.90;;;;;;5049745;28;20029;-64
2022/07/30 01:46:27;;;;;;;2.13;1.65;;;17.90;27.50;;;;;;5070551;28;20040;-64
2022/07/30 01:48:53;;;;;;;3.78;2.17;;;17.90;27.50;;;;;;5053415;28;20044;-64
2022/07/30 01:51:18;;;;;;;4.03;2.10;;;17.90;27.80;;;;;;5071118;28;20394;-64
2022/07/30 01:53:46;;;;;;;2.50;1.75;;;17.90;27.60;;;;;;5060270;28;20479;-64
2022/07/30 01:56:14;;;;;;;4.53;1.70;;;17.80;27.70;;;;;;5050916;28;20060;-64
2022/07/30 01:58:41;;;;;;;4.85;1.75;;;17.80;28.00;;;;;;5068549;28;20032;-64
2022/07/30 02:01:07;;;;;;;2.08;1.55;;;17.80;28.10;;;;;;5051056;28;20063;-64
2022/07/30 02:03:33;;;;;;;2.97;1.60;;;17.70;28.50;;;;;;5068273;28;20075;-65
2022/07/30 02:06:12;;;;;;;2.67;1.88;;;17.70;28.60;;;;;;5051032;28;20428;-64
2022/07/30 02:08:50;;;;;;;5.75;1.70;;;17.70;28.90;;;;;;5047691;28;20085;-64
2022/07/30 02:14:02;;;;;;;4.50;2.10;;;17.60;29.40;;;;;;5047717;28;20046;-65
2022/07/30 02:16:34;;;;;;;2.28;1.65;;;17.60;29.40;;;;;;5050808;28;20431;-64
2022/07/30 02:19:08;;;;;;;5.28;1.42;;;17.60;29.10;;;;;;5040918;28;20477;-64
2022/07/30 02:21:38;;;;;;;2.10;1.80;;;17.50;29.10;;;;;;5029187;28;20027;-63
2022/07/30 02:24:07;;;;;;;1.90;1.60;;;17.50;30.00;;;;;;5054346;28;20036;-64
2022/07/30 02:26:35;;;;;;;3.45;1.65;;;17.50;30.00;;;;;;5070114;28;20028;-64
2022/07/30 02:29:01;;;;;;;1.67;1.58;;;17.50;30.10;;;;;;5048688;28;20021;-64
2022/07/30 02:31:30;;;;;;;5.32;1.80;;;17.50;29.80;;;;;;5069595;28;20068;-64
2022/07/30 02:33:59;;;;;;;4.32;1.60;;;17.50;30.70;;;;;;5059765;28;20028;-64
2022/07/30 02:36:27;;;;;;;2.95;1.60;;;17.40;31.20;;;;;;5050086;28;20029;-64
2022/07/30 02:38:55;;;;;;;4.63;1.65;;;17.40;31.50;;;;;;5067697;28;20028;-64
2022/07/30 02:41:22;;;;;;;3.40;1.58;;;17.40;31.00;;;;;;5050268;28;20025;-64
2022/07/30 02:43:49;;;;;;;2.53;1.55;;;17.40;31.30;;;;;;5067508;28;20067;-64
2022/07/30 02:46:16;;;;;;;2.72;1.33;;;17.40;31.70;;;;;;5049634;28;20032;-64
2022/07/30 02:48:43;;;;;;;3.53;1.55;;;17.40;31.40;;;;;;5066948;28;20040;-64
2022/07/30 02:51:10;;;;;;;3.17;1.52;;;17.30;31.70;;;;;;5069852;28;20025;-64
2022/07/30 02:53:38;;;;;;;2.88;1.67;;;17.30;31.70;;;;;;5056192;28;20060;-63
2022/07/30 02:56:05;;;;;;;2.88;1.67;;;17.30;32.50;;;;;;5049742;28;20532;-63
2022/07/30 02:58:33;;;;;;;1.90;1.52;;;17.30;32.90;;;;;;5067478;28;20487;-64
2022/07/30 03:01:00;;;;;;;5.65;1.95;;;17.30;32.20;;;;;;5069656;28;20107;-64
2022/07/30 03:03:27;;;;;;;3.78;1.70;;;17.30;33.00;;;;;;5054298;28;20024;-64
2022/07/30 03:05:54;;;;;;;4.78;1.70;;;17.30;33.50;;;;;;5069517;28;20031;-64
2022/07/30 03:08:20;;;;;;;3.90;1.80;;;17.30;32.80;;;;;;5053219;28;20082;-64
2022/07/30 03:10:47;;;;;;;8.63;1.88;;;17.20;33.40;;;;;;5069337;28;20457;-64
2022/07/30 03:13:13;;;;;;;3.25;1.30;;;17.30;33.40;;;;;;5048638;28;20428;-63
2022/07/30 03:15:47;;;;;;;4.95;1.48;;;17.30;32.90;;;;;;5069467;28;20028;-64
2022/07/30 03:18:16;;;;;;;3.72;1.67;;;17.20;33.50;;;;;;5035836;28;20024;-64
2022/07/30 03:20:45;;;;;;;3.25;1.33;;;17.20;33.50;;;;;;5069235;28;20035;-64
2022/07/30 03:23:12;;;;;;;6.35;1.60;;;17.20;34.00;;;;;;5050954;28;20036;-64
2022/07/30 03:25:39;;;;;;;1.65;1.33;;;17.20;34.00;;;;;;5069179;28;20034;-63
2022/07/30 03:28:05;;;;;;;2.15;1.40;;;17.20;33.50;;;;;;5048792;28;20040;-64
2022/07/30 03:30:33;;;;;;;2.40;1.48;;;17.20;34.50;;;;;;5069178;28;20035;-64
2022/07/30 03:32:59;;;;;;;5.43;1.83;;;17.20;34.20;;;;;;5049203;28;20025;-64
2022/07/30 03:35:25;;;;;;;2.85;1.25;;;17.20;34.60;;;;;;5068961;28;20025;-64
2022/07/30 03:37:52;;;;;;;4.47;1.70;;;17.20;34.40;;;;;;5047954;28;20108;-63
2022/07/30 03:40:18;;;;;;;4.03;1.40;;;17.20;35.10;;;;;;5069079;28;20077;-64
2022/07/30 03:42:44;;;;;;;2.47;1.55;;;17.20;34.90;;;;;;5049252;28;20116;-64
2022/07/30 03:45:14;;;;;;;5.50;1.40;;;17.10;35.70;;;;;;5066467;28;20041;-64
2022/07/30 03:47:41;;;;;;;3.17;1.23;;;17.20;34.80;;;;;;5048706;28;20029;-64
2022/07/30 03:50:09;;;;;;;3.17;1.35;;;17.10;35.50;;;;;;5047545;28;20053;-63
2022/07/30 03:52:39;;;;;;;4.35;1.17;;;17.10;35.60;;;;;;5068161;28;20029;-63
2022/07/30 03:55:07;;;;;;;3.95;1.50;;;17.10;35.70;;;;;;5047110;28;20291;-64
2022/07/30 03:57:32;;;;;;;3.20;1.20;;;17.10;35.40;;;;;;5067979;28;20071;-64
2022/07/30 03:59:58;;;;;;;5.10;1.10;;;17.10;36.10;;;;;;5046036;28;20037;-64
2022/07/30 04:02:24;;;;;;;3.95;1.45;;;17.10;36.40;;;;;;5067924;28;20028;-64
2022/07/30 04:04:49;;;;;;;4.30;1.65;;;17.10;36.50;;;;;;5047209;28;20029;-64
2022/07/30 04:07:15;;;;;;;2.30;1.23;;;17.10;35.90;;;;;;5067839;28;20035;-64
2022/07/30 04:09:40;;;;;;;4.15;1.13;;;17.10;36.60;;;;;;5047151;28;20551;-63
2022/07/30 04:12:06;;;;;;;5.25;1.30;;;17.10;36.50;;;;;;5067775;28;20101;-64
2022/07/30 04:14:41;;;;;;;2.70;1.52;;;17.10;37.80;;;;;;5043830;28;20535;-64
2022/07/30 04:17:23;;;;;;;5.68;1.60;;;17.10;37.60;;;;;;5066844;28;20044;-64
2022/07/30 04:19:52;;;;;;;1.52;1.10;;;17.20;38.50;;;;;;5042186;28;20025;-64
2022/07/30 04:22:31;;;;;;;3.08;1.52;;;17.20;37.60;;;;;;5066755;28;20124;-64
2022/07/30 04:24:59;;;;;;;2.28;1.15;;;17.20;37.70;;;;;;5043219;28;20100;-64
2022/07/30 04:27:25;;;;;;;2.65;1.30;;;17.20;37.50;;;;;;5067980;28;20059;-64
2022/07/30 04:29:54;;;;;;;1.98;1.27;;;17.30;37.70;;;;;;5047019;28;20090;-64
2022/07/30 04:32:19;;;;;;;1.98;1.10;;;17.30;37.40;;;;;;5067867;28;20102;-64
2022/07/30 04:34:50;;;;;;;2.67;1.10;;;17.30;37.70;;;;;;5046752;28;20496;-63
2022/07/30 04:37:17;;;;;;;4.50;1.30;;;17.30;38.50;;;;;;5067622;28;20036;-64
2022/07/30 04:39:43;;;;;;;1.60;1.00;;;17.40;37.80;;;;;;5046561;28;20041;-63
2022/07/30 04:42:08;;;;;;;1.30;1.00;;;17.40;37.50;;;;;;5067427;28;20541;-64
2022/07/30 04:44:34;;;;;;;1.88;1.33;;;17.50;37.90;;;;;;5045772;28;20096;-63
2022/07/30 04:46:59;;;;;;;2.17;1.10;;;17.50;37.40;;;;;;5067615;28;20087;-64
2022/07/30 04:49:26;;;;;;;3.90;1.27;;;17.50;38.00;;;;;;5046643;28;20091;-64
2022/07/30 04:51:53;;;;;;;1.60;1.23;;;17.50;37.60;;;;;;5067466;28;20032;-64
2022/07/30 04:54:20;;;;;;;4.50;1.52;;;17.60;37.50;;;;;;5056926;28;20492;-64
2022/07/30 04:56:47;;;;;;;3.25;0.93;;;17.60;37.50;;;;;;5048196;28;20041;-64
2022/07/30 04:59:15;;;;;;;3.88;1.30;;;17.60;37.70;;;;;;5065720;28;20207;-64
2022/07/30 05:01:42;;;;;;;4.00;1.30;;;17.60;37.50;;;;;;5048055;28;20082;-64
2022/07/30 05:04:10;;;;;;;1.92;1.45;;;17.70;37.70;;;;;;5065627;28;20021;-64
2022/07/30 05:06:38;;;;;;;4.00;1.30;;;17.70;37.40;;;;;;5048169;28;20025;-64
2022/07/30 05:09:05;;;;;;;4.88;1.38;;;17.70;38.00;;;;;;5065622;28;20063;-64
2022/07/30 05:11:30;;;;;;;2.58;1.33;;;17.80;37.90;;;;;;5051373;28;20551;-64
2022/07/30 05:13:56;;;;;;;4.13;1.20;;;17.80;38.20;;;;;;5054809;28;20037;-64
2022/07/30 05:16:21;;;;;;;1.70;1.10;;;17.80;38.10;;;;;;5070774;28;20574;-64
2022/07/30 05:18:47;;;;;;;3.88;1.30;;;17.80;38.10;;;;;;5055686;28;20473;-48
2022/07/30 05:21:12;;;;;;;4.15;1.27;;;17.80;38.90;;;;;;5071513;28;20086;-48
2022/07/30 05:23:38;;;;;;;2.05;1.30;;;17.90;38.60;;;;;;5054174;28;20086;-48
2022/07/30 05:26:03;;;;;;;3.47;1.27;;;17.90;37.80;;;;;;5071621;28;20100;-49
2022/07/30 05:28:29;;;;;;;1.27;1.00;;;17.90;37.80;;;;;;5052690;28;20969;-48
2022/07/30 05:30:55;;;;;;;1.77;1.23;;;17.90;38.00;;;;;;5071371;28;20081;-47
2022/07/30 05:33:21;;;;;;;2.88;1.23;;;18.00;37.90;;;;;;5051239;28;20064;-46
2022/07/30 05:35:48;;;;;;;1.35;1.05;;;18.00;38.00;;;;;;5071096;28;20108;-48
2022/07/30 05:38:14;;;;;;;4.20;1.48;;;18.00;38.00;;;;;;5049979;28;20124;-48
2022/07/30 05:40:39;;;;;;;2.22;1.23;;;18.00;38.10;;;;;;5071144;28;20116;-46
2022/07/30 05:43:05;;;;;;;3.58;1.30;;;18.00;38.10;;;;;;5051701;28;20108;-50
2022/07/30 05:45:30;;;;;;;1.85;1.25;;;18.10;38.10;;;;;;5049509;28;20083;-48
2022/07/30 05:47:56;;;;;;;2.95;1.02;;;18.10;38.30;;;;;;5070274;28;20369;-48
2022/07/30 05:50:21;;;;;;;3.97;1.10;;;18.10;37.80;;;;;;5049529;28;20053;-47
2022/07/30 05:52:47;;;;;;;3.88;1.30;;;18.20;38.50;;;;;;5070434;28;20037;-47
2022/07/30 05:55:13;;;;;;;1.30;1.10;;;18.20;38.00;;;;;;5049704;28;20037;-48
2022/07/30 05:57:40;;;;;;;1.67;1.13;;;18.20;37.80;;;;;;5068926;28;20024;-47
2022/07/30 06:00:08;;;;;;;2.22;1.15;;;18.20;37.90;;;;;;5049341;28;20100;-46
2022/07/30 06:02:34;;;;;;;3.72;1.38;;;18.30;37.70;;;;;;5052338;28;20036;-49
2022/07/30 06:04:59;;;;;;;3.17;1.10;;;18.40;37.70;;;;;;5049355;28;20048;-48
2022/07/30 06:07:25;;;;;;;1.85;1.05;;;18.40;37.50;;;;;;5069976;28;20036;-49
2022/07/30 06:09:51;;;;;;;3.70;1.38;;;18.40;37.30;;;;;;5049299;28;20029;-47
2022/07/30 06:12:16;;;;;;;4.88;1.17;;;18.50;37.30;;;;;;5069872;28;20056;-48
2022/07/30 06:14:42;;;;;;;2.17;1.35;;;18.60;37.30;;;;;;5043333;28;20029;-46
2022/07/30 06:17:07;;;;;;;2.45;1.17;;;18.70;36.70;;;;;;5069906;28;20445;-47
2022/07/30 06:19:33;;;;;;;2.55;1.08;;;18.70;36.50;;;;;;5059200;28;20039;-49
2022/07/30 06:21:58;;;;;;;2.95;1.17;;;18.70;36.30;;;;;;5050608;28;20116;-47
2022/07/30 06:24:24;;;;;;;4.82;1.35;;;18.80;36.30;;;;;;5067683;28;20570;-46
2022/07/30 06:26:49;;;;;;;1.40;1.10;;;18.80;36.30;;;;;;5050893;28;20029;-49
2022/07/30 06:29:15;;;;;;;2.45;1.42;;;18.90;36.20;;;;;;5067681;28;20056;-48
2022/07/30 06:31:40;;;;;;;2.30;0.95;;;19.00;35.70;;;;;;5070285;28;20027;-48
2022/07/30 06:34:06;;;;;;;1.00;1.00;;;19.00;35.50;;;;;;5054911;28;20025;-47
2022/07/30 06:36:31;;;;;;;3.03;1.08;;;19.20;35.30;;;;;;5069990;28;20090;-49
2022/07/30 06:38:57;;;;;;;4.35;1.25;;;19.20;34.70;;;;;;5052022;28;20028;-49
2022/07/30 06:41:23;;;;;;;4.13;1.10;;;19.20;34.20;;;;;;5069993;28;20103;-47
2022/07/30 06:43:49;;;;;;;1.50;1.05;;;19.40;34.60;;;;;;5051682;28;20021;-47
2022/07/30 06:46:15;;;;;;;1.10;1.00;;;19.50;33.80;;;;;;5070026;28;20020;-48
2022/07/30 06:48:41;;;;;;;2.17;1.13;;;19.60;33.50;;;;;;5048515;28;20051;-47
2022/07/30 06:51:07;;;;;;;1.40;1.08;;;19.70;32.90;;;;;;5048540;28;20028;-47
2022/07/30 06:53:32;;;;;;;1.40;1.00;;;19.70;32.60;;;;;;5067158;28;20060;-50
2022/07/30 06:55:59;;;;;;;2.60;1.15;;;19.80;32.30;;;;;;5069615;28;20048;-47
2022/07/30 06:58:24;;;;;;;1.83;0.90;;;19.90;32.00;;;;;;5050213;28;20486;-48
2022/07/30 07:00:50;;;;;;;2.85;1.02;;;20.10;31.70;;;;;;5067496;28;20024;-48
2022/07/30 07:03:15;;;;;;;1.52;1.02;;;20.30;31.60;;;;;;5050171;28;20036;-48
2022/07/30 07:05:41;;;;;;;2.47;1.27;;;20.30;30.00;;;;;;5048706;28;20041;-47
2022/07/30 07:08:06;;;;;;;1.25;0.90;;;20.20;31.00;;;;;;5068854;28;20101;-50
2022/07/30 07:10:32;;;;;;;1.33;0.80;;;20.30;31.00;;;;;;5048357;28;20165;-47
2022/07/30 07:12:59;;;;;;;1.00;0.90;;;20.40;29.90;;;;;;5068595;28;20032;-49
2022/07/30 07:15:25;;;;;;;3.60;1.20;;;20.50;30.00;;;;;;5037347;28;20033;-47
2022/07/30 07:17:50;;;;;;;3.53;1.35;;;20.50;28.30;;;;;;5068554;28;20039;-47
2022/07/30 07:20:16;;;;;;;3.17;1.48;;;20.30;29.30;;;;;;5048130;28;20411;-50
2022/07/30 07:22:41;;;;;;;2.25;1.15;;;20.30;29.90;;;;;;5068477;28;20438;-48
2022/07/30 07:25:07;;;;;;;1.33;1.00;;;20.40;29.70;;;;;;5047982;28;20033;-52
2022/07/30 07:27:33;;;;;;;2.65;1.08;;;20.70;29.70;;;;;;5068446;28;20024;-47
2022/07/30 07:29:58;;;;;;;4.43;1.27;;;20.80;29.50;;;;;;5047782;28;20065;-48
2022/07/30 07:32:24;;;;;;;3.42;1.27;;;20.90;27.80;;;;;;5067850;28;20036;-48
2022/07/30 07:34:49;;;;;;;5.30;1.30;;;20.90;28.20;;;;;;5057704;28;20130;-46
2022/07/30 07:37:15;;;;;;;2.88;1.25;;;20.80;29.10;;;;;;5049428;28;20066;-47
2022/07/30 07:39:41;;;;;;;4.50;1.30;;;20.90;28.50;;;;;;5066256;28;20027;-46
2022/07/30 07:42:07;;;;;;;4.15;1.80;;;20.80;27.80;;;;;;5049701;28;20036;-46
2022/07/30 07:44:32;;;;;;;2.25;1.25;;;20.90;27.60;;;;;;5066270;28;20032;-51
2022/07/30 07:46:57;;;;;;;2.63;1.08;;;21.00;27.60;;;;;;5049335;28;20419;-47
2022/07/30 07:49:23;;;;;;;1.27;1.10;;;21.20;28.00;;;;;;5057682;28;20055;-49
2022/07/30 07:51:49;;;;;;;1.27;1.10;;;21.30;27.50;;;;;;5067804;28;20028;-49
2022/07/30 07:54:15;;;;;;;2.28;0.90;;;21.50;27.30;;;;;;5052328;28;20511;-48
2022/07/30 07:56:40;;;;;;;2.33;1.20;;;21.70;26.80;;;;;;5068519;28;20477;-49
2022/07/30 07:59:06;;;;;;;1.58;1.20;;;21.80;24.80;;;;;;5050777;28;20059;-48
2022/07/30 08:01:31;;;;;;;1.80;1.00;;;21.80;26.00;;;;;;5068621;28;20128;-47
2022/07/30 08:03:57;;;;;;;1.05;0.90;;;22.10;25.30;;;;;;5049505;28;20040;-52
2022/07/30 08:06:22;;;;;;;1.15;1.05;;;22.30;25.00;;;;;;5068474;28;20029;-52
2022/07/30 08:08:48;;;;;;;4.40;1.35;;;22.50;23.60;;;;;;5048080;28;20029;-53
2022/07/30 08:11:13;;;;;;;1.55;1.10;;;22.70;23.70;;;;;;5068734;28;20020;-48
2022/07/30 08:13:38;;;;;;;1.50;0.90;;;22.80;23.90;;;;;;5048156;28;20466;-50
2022/07/30 08:16:04;;;;;;;8.18;1.20;;;23.10;22.80;;;;;;5047120;28;20037;-49
2022/07/30 08:18:30;;;;;;;2.97;1.00;;;23.30;22.30;;;;;;5067540;28;20512;-51
2022/07/30 08:20:55;;;;;;;1.20;1.10;;;23.30;22.50;;;;;;5047012;28;20094;-48
2022/07/30 08:23:23;;;;;;;1.00;0.80;;;23.60;22.30;;;;;;5067595;28;20111;-54
2022/07/30 08:25:48;;;;;;;1.90;1.35;;;24.10;21.70;;;;;;5045385;28;20489;-53
2022/07/30 08:28:14;;;;;;;2.00;1.15;;;24.70;20.60;;;;;;5067574;28;20060;-54
2022/07/30 08:30:39;;;;;;;1.38;1.00;;;24.80;19.40;;;;;;5047230;28;20108;-50
2022/07/30 08:33:05;;;;;;;0.95;0.80;;;25.10;18.60;;;;;;5067542;28;20499;-55
2022/07/30 08:35:30;;;;;;;2.58;1.00;;;25.20;18.50;;;;;;5046823;28;20098;-54
2022/07/30 08:37:56;;;;;;;1.42;1.13;;;25.50;18.20;;;;;;5067795;28;20047;-51
2022/07/30 08:40:25;;;;;;;3.00;0.98;;;25.70;17.60;;;;;;5046681;28;20029;-49
2022/07/30 08:42:52;;;;;;;1.05;0.95;;;25.70;16.90;;;;;;5067985;28;20029;-47
2022/07/30 08:45:17;;;;;;;1.85;1.10;;;25.40;16.60;;;;;;5048312;28;20440;-52
2022/07/30 08:47:44;;;;;;;3.75;0.95;;;25.30;16.20;;;;;;5071391;28;20021;-47
2022/07/30 08:50:10;;;;;;;6.75;1.88;;;25.30;16.50;;;;;;5061376;28;20037;-48
2022/07/30 08:52:37;;;;;;;2.38;0.90;;;25.20;16.30;;;;;;5052422;28;20043;-49
2022/07/30 08:55:06;;;;;;;1.00;0.90;;;25.00;16.20;;;;;;5069286;28;20044;-49
2022/07/30 08:57:33;;;;;;;1.40;1.05;;;24.70;16.30;;;;;;5052556;28;20056;-49
2022/07/30 08:59:59;;;;;;;2.17;1.20;;;24.50;16.00;;;;;;5069436;28;20100;-48
2022/07/30 09:02:25;;;;;;;1.80;0.88;;;24.40;16.50;;;;;;5052416;28;20025;-47
2022/07/30 09:04:51;;;;;;;1.85;1.10;;;24.40;16.30;;;;;;5069168;28;20484;-47
2022/07/30 09:07:17;;;;;;;2.15;1.23;;;24.30;16.70;;;;;;5052228;28;20029;-50
2022/07/30 09:09:42;;;;;;;1.58;0.82;;;24.10;16.70;;;;;;5069049;28;20404;-49
2022/07/30 09:12:33;;;;;;;1.38;1.08;;;24.20;16.70;;;;;;5071672;28;20060;-48
2022/07/30 09:15:19;;;;;;;2.05;1.00;;;24.20;16.00;;;;;;5053253;28;20027;-47
2022/07/30 09:17:50;;;;;;;3.13;1.70;;;24.10;15.90;;;;;;5031717;28;20104;-51
2022/07/30 09:20:17;;;;;;;1.55;1.13;;;24.00;16.50;;;;;;5069273;28;20443;-49
2022/07/30 09:22:48;;;;;;;6.05;1.48;;;24.00;17.00;;;;;;5051893;28;20057;-52
2022/07/30 09:25:14;;;;;;;1.30;0.95;;;24.00;16.80;;;;;;5050959;28;20726;-50
2022/07/30 09:27:57;;;;;;;1.38;1.00;;;24.00;16.40;;;;;;5051841;28;20063;-47
2022/07/30 09:30:23;;;;;;;1.42;1.10;;;24.00;16.00;;;;;;5052942;28;20512;-53
2022/07/30 09:32:52;;;;;;;1.42;1.08;;;24.00;16.40;;;;;;5051781;28;20025;-49
2022/07/30 09:35:18;;;;;;;2.75;1.25;;;23.80;16.70;;;;;;5069077;28;20037;-51
2022/07/30 09:37:45;;;;;;;1.63;1.10;;;23.80;17.00;;;;;;5050346;28;20650;-49
2022/07/30 09:40:16;;;;;;;2.92;1.00;;;23.90;17.40;;;;;;5068718;28;20442;-47
2022/07/30 09:42:43;;;;;;;2.88;1.17;;;23.90;17.00;;;;;;5051218;28;20485;-50
2022/07/30 09:45:14;;;;;;;2.10;1.10;;;23.90;17.10;;;;;;5068639;28;20492;-49
2022/07/30 09:47:49;;;;;;;1.95;0.90;;;23.80;17.10;;;;;;5051172;28;20492;-50
2022/07/30 09:50:16;;;;;;;1.63;1.20;;;23.90;17.00;;;;;;5049116;28;20086;-48
2022/07/30 09:52:44;;;;;;;3.30;1.10;;;24.00;17.30;;;;;;5051279;28;20064;-53
2022/07/30 09:55:10;;;;;;;1.35;1.15;;;23.90;17.10;;;;;;5068422;28;20043;-48
2022/07/30 09:57:55;;;;;;;2.70;1.20;;;23.80;17.30;;;;;;5050593;28;20110;-51
2022/07/30 10:00:23;;;;;;;2.10;0.80;;;23.90;17.50;;;;;;5050041;28;20583;-47
2022/07/30 10:02:50;;;;;;;1.10;0.90;;;24.00;17.20;;;;;;5050952;28;20025;-49
2022/07/30 10:05:18;;;;;;;1.40;1.20;;;24.10;16.70;;;;;;5068412;28;20029;-47
2022/07/30 10:07:54;;;;;;;2.20;0.95;;;24.30;16.90;;;;;;5051075;28;20083;-50
2022/07/30 10:10:22;;;;;;;2.88;1.00;;;24.50;16.00;;;;;;5049373;28;20044;-54
2022/07/30 10:12:52;;;;;;;1.35;0.80;;;24.60;16.10;;;;;;5050788;28;20504;-47
2022/07/30 10:15:22;;;;;;;4.00;1.05;;;24.70;15.80;;;;;;5062529;28;20040;-53
2022/07/30 10:17:48;;;;;;;1.10;0.70;;;24.90;15.40;;;;;;5030685;28;20025;-52
2022/07/30 10:20:15;;;;;;;2.05;1.20;;;25.10;15.20;;;;;;5067297;28;20542;-48
2022/07/30 10:22:43;;;;;;;1.75;1.00;;;24.80;14.90;;;;;;5049405;28;20239;-54
2022/07/30 10:25:09;;;;;;;5.60;1.30;;;24.90;14.60;;;;;;5068050;28;20024;-53
2022/07/30 10:27:35;;;;;;;1.65;1.20;;;24.80;15.00;;;;;;5050667;28;20120;-50
2022/07/30 10:30:01;;;;;;;3.03;1.13;;;25.00;15.10;;;;;;5067766;28;20032;-52
2022/07/30 10:32:26;;;;;;;1.77;1.15;;;25.20;14.40;;;;;;5070527;28;20097;-50
2022/07/30 10:34:52;;;;;;;3.90;1.02;;;25.40;14.20;;;;;;5054386;28;20093;-52
2022/07/30 10:37:21;;;;;;;1.60;1.02;;;25.50;14.60;;;;;;5070195;28;20020;-54
2022/07/30 10:39:55;;;;;;;5.85;1.27;;;25.60;14.00;;;;;;5052953;28;20115;-47
2022/07/30 10:42:49;;;;;;;3.35;1.00;;;25.70;13.40;;;;;;5070098;28;20024;-51
2022/07/30 10:45:21;;;;;;;1.42;1.08;;;25.80;13.50;;;;;;5045431;28;20132;-48
2022/07/30 10:47:48;;;;;;;1.90;1.00;;;25.80;12.80;;;;;;5050134;28;20090;-50
2022/07/30 10:50:19;;;;;;;2.80;1.10;;;25.90;13.20;;;;;;5067184;28;20044;-47
2022/07/30 10:53:05;;;;;;;4.75;1.20;;;25.90;12.90;;;;;;5049996;28;20029;-47
2022/07/30 10:55:34;;;;;;;2.75;1.25;;;26.10;12.30;;;;;;5048406;28;20049;-49
2022/07/30 10:58:04;;;;;;;5.03;0.80;;;26.00;12.40;;;;;;5049662;28;20364;-47
2022/07/30 11:00:32;;;;;;;2.85;1.10;;;26.00;12.10;;;;;;5067246;28;20028;-46
2022/07/30 11:03:18;;;;;;;2.72;1.05;;;26.10;12.10;;;;;;5049631;28;20087;-47
2022/07/30 11:05:46;;;;;;;2.15;1.02;;;26.10;11.50;;;;;;5051717;28;20025;-48
2022/07/30 11:08:33;;;;;;;1.00;0.88;;;25.90;11.60;;;;;;5048748;28;20512;-48
2022/07/30 11:10:59;;;;;;;1.95;1.00;;;25.90;11.90;;;;;;5040288;28;20112;-47
2022/07/30 11:13:54;;;;;;;2.90;1.13;;;25.90;12.20;;;;;;5058737;28;20112;-47
2022/07/30 11:16:22;;;;;;;1.17;1.07;;;26.10;11.30;;;;;;5064057;28;20033;-48
2022/07/30 11:19:15;;;;;;;1.55;1.00;;;26.00;11.10;;;;;;5049482;28;20533;-46
2022/07/30 11:21:41;;;;;;;3.25;1.10;;;26.00;11.70;;;;;;5046772;28;20029;-64
2022/07/30 11:24:43;;;;;;;2.97;1.08;;;26.10;11.80;;;;;;5068903;28;20028;-52
2022/07/30 11:27:08;;;;;;;3.20;1.00;;;25.80;10.90;;;;;;5029361;28;20029;-55
2022/07/30 11:29:39;;;;;;;2.50;0.95;;;25.80;11.50;;;;;;5065978;28;20025;-53
2022/07/30 11:32:25;;;;;;;2.47;1.10;;;25.90;10.90;;;;;;5068934;28;20028;-55
2022/07/30 11:35:09;;;;;;;0.90;0.90;;;25.80;10.60;;;;;;5051150;28;20048;-54
2022/07/30 11:37:59;;;;;;;3.30;1.02;;;25.60;11.10;;;;;;5068968;28;20514;-49
2022/07/30 11:40:26;;;;;;;6.13;1.15;;;25.70;10.50;;;;;;5044048;28;20040;-50
2022/07/30 11:43:31;;;;;;;2.65;1.30;;;25.60;11.20;;;;;;5049033;28;20118;-50
2022/07/30 11:46:05;;;;;;;2.55;0.93;;;25.70;11.50;;;;;;5052141;28;20048;-52
2022/07/30 11:48:31;;;;;;;1.17;0.93;;;25.90;10.40;;;;;;5049647;28;20485;-52
2022/07/30 11:50:57;;;;;;;1.23;0.82;;;25.70;10.40;;;;;;5066884;28;20093;-51
2022/07/30 11:53:23;;;;;;;1.52;1.17;;;25.60;10.70;;;;;;5049282;28;20447;-49
2022/07/30 11:55:51;;;;;;;3.60;1.10;;;25.60;11.00;;;;;;5054788;28;20438;-53
2022/07/30 11:58:36;;;;;;;1.30;0.90;;;25.70;10.60;;;;;;5068365;28;20031;-48
2022/07/30 12:01:04;;;;;;;2.53;1.17;;;25.80;9.90;;;;;;5039765;28;20040;-56
2022/07/30 12:03:32;;;;;;;1.42;1.10;;;25.80;10.50;;;;;;5068459;28;20321;-54
2022/07/30 12:06:06;;;;;;;5.72;1.40;;;25.50;10.60;;;;;;5046788;28;20047;-52
2022/07/30 12:08:42;;;;;;;0.70;0.70;;;25.60;10.70;;;;;;5067995;28;20032;-53
2022/07/30 12:11:07;;;;;;;0.85;0.85;;;25.60;10.60;;;;;;5047105;28;20516;-54
2022/07/30 12:13:33;;;;;;;1.40;1.05;;;25.70;10.20;;;;;;5056745;28;20067;-53
2022/07/30 12:15:59;;;;;;;1.88;1.10;;;25.50;10.40;;;;;;5058687;28;20451;-52
2022/07/30 12:18:27;;;;;;;3.22;0.80;;;25.40;10.40;;;;;;5048833;28;20026;-56
2022/07/30 12:21:04;;;;;;;1.08;0.77;;;25.30;10.00;;;;;;5065808;28;20024;-52
2022/07/30 12:23:30;;;;;;;1.67;1.00;;;25.40;10.30;;;;;;5028516;28;20026;-56
2022/07/30 12:25:57;;;;;;;3.40;0.90;;;25.60;10.40;;;;;;5053824;28;20090;-53
2022/07/30 12:28:25;;;;;;;1.10;0.93;;;25.60;10.10;;;;;;5067760;28;20119;-54
2022/07/30 12:30:52;;;;;;;5.72;1.02;;;25.60;9.70;;;;;;5056896;28;20456;-53
2022/07/30 12:33:19;;;;;;;2.63;1.13;;;25.70;10.20;;;;;;5048510;28;20115;-54
2022/07/30 12:35:47;;;;;;;1.83;0.70;;;25.80;9.30;;;;;;5065670;28;20119;-55
2022/07/30 12:38:13;;;;;;;3.42;1.00;;;25.80;9.70;;;;;;5048364;28;20485;-53
2022/07/30 12:41:02;;;;;;;3.95;1.38;;;25.70;10.00;;;;;;5065343;28;20036;-49
2022/07/30 12:43:44;;;;;;;1.30;0.93;;;25.80;10.00;;;;;;5028351;28;20029;-50
2022/07/30 12:46:11;;;;;;;1.58;0.90;;;25.80;9.20;;;;;;5052647;28;20059;-52
2022/07/30 12:48:36;;;;;;;2.80;0.70;;;25.90;9.40;;;;;;5065337;28;20024;-53
2022/07/30 12:51:09;;;;;;;2.08;0.98;;;26.10;9.00;;;;;;5057562;28;20032;-55
2022/07/30 12:53:35;;;;;;;0.98;0.88;;;26.00;8.50;;;;;;5047886;28;20529;-52
2022/07/30 12:56:11;;;;;;;0.82;0.82;;;26.00;8.60;;;;;;5054235;28;20509;-52
2022/07/30 12:58:37;;;;;;;3.40;1.00;;;26.00;8.40;;;;;;5067371;28;20056;-51